sensor_id;sensor_type;location;lat;lon;timestamp;temperature;humidity
2603;DHT22;1311;47.966;7.958;2023-03-14T00:02:22;-40.00;99.90
2603;DHT22;1311;47.966;7.958;2023-03-14T00:04:49;-40.00;99.90
2603;DHT22;1311;47.966;7.958;2023-03-14T00:07:16;-40.00;99.90
2603;DHT22;1311;47.966;7.958;2023-03-14T00:09:42;-40.00;99.90
2603;DHT22;1311;47.966;7.958;2023-03-14T00:12:10;-40.00;99.90
2603;DHT22;1311;47.966;7.958;2023-03-14T00:14:40;-40.00;99.90
2603;DHT22;1311;47.966;7.958;2023-03-14T00:17:09;-40.00;99.90
2603;DHT22;1311;47.966;7.958;2023-03-14T00:19:35;-40.00;99.90
2603;DHT22;1311;47.966;7.958;2023-03-14T00:22:02;-40.00;99.90
2603;DHT22;1311;47.966;7.958;2023-03-14T00:24:29;-40.00;99.90
2603;DHT22;1311;47.966;7.958;2023-03-14T00:26:55;-40.00;99.90
2603;DHT22;1311;47.966;7.958;2023-03-14T00:29:23;-40.00;99.90
2603;DHT22;1311;47.966;7.958;2023-03-14T00:31:50;-40.00;99.90
2603;DHT22;1311;47.966;7.958;2023-03-14T00:34:17;-40.00;99.90
2603;DHT22;1311;47.966;7.958;2023-03-14T00:36:45;-40.00;99.90
2603;DHT22;1311;47.966;7.958;2023-03-14T00:39:11;-40.00;99.90
2603;DHT22;1311;47.966;7.958;2023-03-14T00:41:38;-40.00;99.90
2603;DHT22;1311;47.966;7.958;2023-03-14T00:44:05;-40.00;99.90
2603;DHT22;1311;47.966;7.958;2023-03-14T00:46:33;-40.00;99.90
2603;DHT22;1311;47.966;7.958;2023-03-14T00:49:00;-40.00;99.90
2603;DHT22;1311;47.966;7.958;2023-03-14T00:51:26;-40.00;99.90
2603;DHT22;1311;47.966;7.958;2023-03-14T00:53:53;-40.00;99.90
2603;DHT22;1311;47.966;7.958;2023-03-14T00:56:20;-40.00;99.90
2603;DHT22;1311;47.966;7.958;2023-03-14T00:58:47;-40.00;99.90
2603;DHT22;1311;47.966;7.958;2023-03-14T01:01:16;-40.00;99.90
2603;DHT22;1311;47.966;7.958;2023-03-14T01:03:44;-40.00;99.90
2603;DHT22;1311;47.966;7.958;2023-03-14T01:06:14;-40.00;99.90
2603;DHT22;1311;47.966;7.958;2023-03-14T01:08:41;-40.00;99.90
2603;DHT22;1311;47.966;7.958;2023-03-14T01:11:09;-40.00;99.90
2603;DHT22;1311;47.966;7.958;2023-03-14T01:13:36;-40.00;99.90
2603;DHT22;1311;47.966;7.958;2023-03-14T01:16:04;-40.00;99.90
2603;DHT22;1311;47.966;7.958;2023-03-14T01:18:32;-40.00;99.90
2603;DHT22;1311;47.966;7.958;2023-03-14T01:21:03;-40.00;99.90
2603;DHT22;1311;47.966;7.958;2023-03-14T01:23:30;-40.00;99.90
2603;DHT22;1311;47.966;7.958;2023-03-14T01:25:57;-40.00;99.90
2603;DHT22;1311;47.966;7.958;2023-03-14T01:28:24;-40.00;99.90
2603;DHT22;1311;47.966;7.958;2023-03-14T01:30:51;-40.00;99.90
2603;DHT22;1311;47.966;7.958;2023-03-14T01:33:17;-40.00;99.90
2603;DHT22;1311;47.966;7.958;2023-03-14T01:35:44;-40.00;99.90
2603;DHT22;1311;47.966;7.958;2023-03-14T01:38:12;-40.00;99.90
2603;DHT22;1311;47.966;7.958;2023-03-14T01:40:43;-40.00;99.90
2603;DHT22;1311;47.966;7.958;2023-03-14T01:43:15;-40.00;99.90
2603;DHT22;1311;47.966;7.958;2023-03-14T01:49:05;-40.00;99.90
2603;DHT22;1311;47.966;7.958;2023-03-14T01:51:38;-40.00;99.90
2603;DHT22;1311;47.966;7.958;2023-03-14T01:54:12;-40.00;99.90
2603;DHT22;1311;47.966;7.958;2023-03-14T01:56:41;-40.00;99.90
2603;DHT22;1311;47.966;7.958;2023-03-14T01:59:10;-40.00;99.90
2603;DHT22;1311;47.966;7.958;2023-03-14T02:01:38;-40.00;99.90
2603;DHT22;1311;47.966;7.958;2023-03-14T02:04:07;-40.00;99.90
2603;DHT22;1311;47.966;7.958;2023-03-14T02:06:41;-40.00;99.90
2603;DHT22;1311;47.966;7.958;2023-03-14T02:09:10;-40.00;99.90
2603;DHT22;1311;47.966;7.958;2023-03-14T02:11:37;-40.00;99.90
2603;DHT22;1311;47.966;7.958;2023-03-14T02:14:04;-40.00;99.90
2603;DHT22;1311;47.966;7.958;2023-03-14T02:16:31;-40.00;99.90
2603;DHT22;1311;47.966;7.958;2023-03-14T02:18:58;-40.00;99.90
2603;DHT22;1311;47.966;7.958;2023-03-14T02:21:34;-40.00;99.90
2603;DHT22;1311;47.966;7.958;2023-03-14T02:24:09;-40.00;99.90
2603;DHT22;1311;47.966;7.958;2023-03-14T02:26:44;-40.00;99.90
2603;DHT22;1311;47.966;7.958;2023-03-14T02:29:13;-40.00;99.90
2603;DHT22;1311;47.966;7.958;2023-03-14T02:31:40;-40.00;99.90
2603;DHT22;1311;47.966;7.958;2023-03-14T02:34:06;-40.00;99.90
2603;DHT22;1311;47.966;7.958;2023-03-14T02:36:34;-40.00;99.90
2603;DHT22;1311;47.966;7.958;2023-03-14T02:39:06;-40.00;99.90
2603;DHT22;1311;47.966;7.958;2023-03-14T02:41:34;-40.00;99.90
2603;DHT22;1311;47.966;7.958;2023-03-14T02:44:01;-40.00;99.90
2603;DHT22;1311;47.966;7.958;2023-03-14T02:46:29;-40.00;99.90
2603;DHT22;1311;47.966;7.958;2023-03-14T02:48:59;-40.00;99.90
2603;DHT22;1311;47.966;7.958;2023-03-14T02:51:28;-40.00;99.90
2603;DHT22;1311;47.966;7.958;2023-03-14T02:53:56;-40.00;99.90
2603;DHT22;1311;47.966;7.958;2023-03-14T02:56:22;-40.00;99.90
2603;DHT22;1311;47.966;7.958;2023-03-14T02:58:49;-40.00;99.90
2603;DHT22;1311;47.966;7.958;2023-03-14T03:01:16;-38.70;99.90
2603;DHT22;1311;47.966;7.958;2023-03-14T03:03:44;-35.50;99.90
2603;DHT22;1311;47.966;7.958;2023-03-14T03:06:11;-31.30;99.90
2603;DHT22;1311;47.966;7.958;2023-03-14T03:08:38;-23.30;99.90
2603;DHT22;1311;47.966;7.958;2023-03-14T03:11:06;-21.30;99.90
2603;DHT22;1311;47.966;7.958;2023-03-14T03:13:33;-18.90;99.90
2603;DHT22;1311;47.966;7.958;2023-03-14T03:16:00;-15.90;99.90
2603;DHT22;1311;47.966;7.958;2023-03-14T03:18:27;-10.30;99.90
2603;DHT22;1311;47.966;7.958;2023-03-14T03:20:55;-7.70;99.90
2603;DHT22;1311;47.966;7.958;2023-03-14T03:23:21;-5.00;99.90
2603;DHT22;1311;47.966;7.958;2023-03-14T03:25:49;-1.10;99.90
2603;DHT22;1311;47.966;7.958;2023-03-14T03:28:16;1.70;99.90
2603;DHT22;1311;47.966;7.958;2023-03-14T03:30:44;2.30;99.90
2603;DHT22;1311;47.966;7.958;2023-03-14T03:33:11;2.70;99.90
2603;DHT22;1311;47.966;7.958;2023-03-14T03:35:43;3.40;99.90
2603;DHT22;1311;47.966;7.958;2023-03-14T03:38:12;4.10;99.90
2603;DHT22;1311;47.966;7.958;2023-03-14T03:40:39;4.50;99.90
2603;DHT22;1311;47.966;7.958;2023-03-14T03:43:06;4.90;99.90
2603;DHT22;1311;47.966;7.958;2023-03-14T03:45:33;5.80;99.90
2603;DHT22;1311;47.966;7.958;2023-03-14T03:47:59;6.00;99.90
2603;DHT22;1311;47.966;7.958;2023-03-14T03:50:26;6.30;99.90
2603;DHT22;1311;47.966;7.958;2023-03-14T03:52:53;6.50;99.90
2603;DHT22;1311;47.966;7.958;2023-03-14T03:55:21;6.70;99.90
2603;DHT22;1311;47.966;7.958;2023-03-14T03:57:47;7.10;99.90
2603;DHT22;1311;47.966;7.958;2023-03-14T04:00:14;7.40;99.90
2603;DHT22;1311;47.966;7.958;2023-03-14T04:02:41;7.60;99.90
2603;DHT22;1311;47.966;7.958;2023-03-14T04:05:08;7.90;99.90
2603;DHT22;1311;47.966;7.958;2023-03-14T04:07:35;8.10;99.90
2603;DHT22;1311;47.966;7.958;2023-03-14T04:10:03;8.30;99.90
2603;DHT22;1311;47.966;7.958;2023-03-14T04:12:31;8.40;99.90
2603;DHT22;1311;47.966;7.958;2023-03-14T04:14:58;8.40;99.90
2603;DHT22;1311;47.966;7.958;2023-03-14T04:17:25;8.60;99.90
2603;DHT22;1311;47.966;7.958;2023-03-14T04:19:51;8.80;99.90
2603;DHT22;1311;47.966;7.958;2023-03-14T04:22:19;8.90;99.90
2603;DHT22;1311;47.966;7.958;2023-03-14T04:24:46;9.10;99.90
2603;DHT22;1311;47.966;7.958;2023-03-14T04:27:12;9.10;99.90
2603;DHT22;1311;47.966;7.958;2023-03-14T04:29:42;9.40;99.90
2603;DHT22;1311;47.966;7.958;2023-03-14T04:32:08;9.50;99.90
2603;DHT22;1311;47.966;7.958;2023-03-14T04:34:35;9.70;99.90
2603;DHT22;1311;47.966;7.958;2023-03-14T04:37:02;9.80;99.90
2603;DHT22;1311;47.966;7.958;2023-03-14T04:39:29;9.90;99.90
2603;DHT22;1311;47.966;7.958;2023-03-14T04:41:55;10.00;99.90
2603;DHT22;1311;47.966;7.958;2023-03-14T04:44:22;10.10;99.90
2603;DHT22;1311;47.966;7.958;2023-03-14T04:46:50;10.10;99.90
2603;DHT22;1311;47.966;7.958;2023-03-14T04:49:17;10.10;99.90
2603;DHT22;1311;47.966;7.958;2023-03-14T04:51:44;10.00;99.90
2603;DHT22;1311;47.966;7.958;2023-03-14T04:54:10;10.10;99.90
2603;DHT22;1311;47.966;7.958;2023-03-14T04:56:37;10.20;99.90
2603;DHT22;1311;47.966;7.958;2023-03-14T04:59:04;10.30;99.90
2603;DHT22;1311;47.966;7.958;2023-03-14T05:01:31;10.30;99.90
2603;DHT22;1311;47.966;7.958;2023-03-14T05:03:59;10.40;99.90
2603;DHT22;1311;47.966;7.958;2023-03-14T05:06:26;10.40;99.90
2603;DHT22;1311;47.966;7.958;2023-03-14T05:08:52;10.40;99.90
2603;DHT22;1311;47.966;7.958;2023-03-14T05:11:19;10.40;99.90
2603;DHT22;1311;47.966;7.958;2023-03-14T05:13:46;10.50;99.90
2603;DHT22;1311;47.966;7.958;2023-03-14T05:16:13;10.50;99.90
2603;DHT22;1311;47.966;7.958;2023-03-14T05:18:39;10.50;99.90
2603;DHT22;1311;47.966;7.958;2023-03-14T05:21:08;10.50;99.90
2603;DHT22;1311;47.966;7.958;2023-03-14T05:23:34;10.50;99.90
2603;DHT22;1311;47.966;7.958;2023-03-14T05:26:01;10.60;99.90
2603;DHT22;1311;47.966;7.958;2023-03-14T05:28:28;10.60;99.90
2603;DHT22;1311;47.966;7.958;2023-03-14T05:30:54;10.60;99.90
2603;DHT22;1311;47.966;7.958;2023-03-14T05:33:21;10.60;99.90
2603;DHT22;1311;47.966;7.958;2023-03-14T05:35:48;10.60;99.90
2603;DHT22;1311;47.966;7.958;2023-03-14T05:38:16;10.60;99.90
2603;DHT22;1311;47.966;7.958;2023-03-14T05:40:44;10.70;99.90
2603;DHT22;1311;47.966;7.958;2023-03-14T05:43:11;10.70;99.90
2603;DHT22;1311;47.966;7.958;2023-03-14T05:45:38;10.80;99.90
2603;DHT22;1311;47.966;7.958;2023-03-14T05:48:05;10.70;99.90
2603;DHT22;1311;47.966;7.958;2023-03-14T05:50:32;10.80;99.90
2603;DHT22;1311;47.966;7.958;2023-03-14T05:52:59;10.80;99.90
2603;DHT22;1311;47.966;7.958;2023-03-14T05:55:27;10.90;99.90
2603;DHT22;1311;47.966;7.958;2023-03-14T05:57:54;10.90;99.90
2603;DHT22;1311;47.966;7.958;2023-03-14T06:00:22;10.90;99.90
2603;DHT22;1311;47.966;7.958;2023-03-14T06:02:49;10.90;99.90
2603;DHT22;1311;47.966;7.958;2023-03-14T06:05:15;10.90;99.90
2603;DHT22;1311;47.966;7.958;2023-03-14T06:07:42;10.90;99.90
2603;DHT22;1311;47.966;7.958;2023-03-14T06:10:10;10.90;99.90
2603;DHT22;1311;47.966;7.958;2023-03-14T06:12:38;11.00;99.90
2603;DHT22;1311;47.966;7.958;2023-03-14T06:15:05;10.90;99.90
2603;DHT22;1311;47.966;7.958;2023-03-14T06:17:32;11.00;99.90
2603;DHT22;1311;47.966;7.958;2023-03-14T06:19:59;11.00;99.90
2603;DHT22;1311;47.966;7.958;2023-03-14T06:22:26;11.00;99.90
2603;DHT22;1311;47.966;7.958;2023-03-14T06:24:53;11.00;99.90
2603;DHT22;1311;47.966;7.958;2023-03-14T06:27:19;11.10;99.90
2603;DHT22;1311;47.966;7.958;2023-03-14T06:29:48;11.10;99.90
2603;DHT22;1311;47.966;7.958;2023-03-14T06:32:14;11.10;99.90
2603;DHT22;1311;47.966;7.958;2023-03-14T06:34:41;11.20;99.90
2603;DHT22;1311;47.966;7.958;2023-03-14T06:37:08;11.20;99.90
2603;DHT22;1311;47.966;7.958;2023-03-14T06:39:35;11.20;99.90
2603;DHT22;1311;47.966;7.958;2023-03-14T06:42:03;11.30;99.90
2603;DHT22;1311;47.966;7.958;2023-03-14T06:44:29;11.30;99.90
2603;DHT22;1311;47.966;7.958;2023-03-14T06:46:57;11.30;99.90
2603;DHT22;1311;47.966;7.958;2023-03-14T06:49:24;11.30;99.90
2603;DHT22;1311;47.966;7.958;2023-03-14T06:51:51;11.30;99.90
2603;DHT22;1311;47.966;7.958;2023-03-14T06:54:18;11.30;99.90
2603;DHT22;1311;47.966;7.958;2023-03-14T06:56:44;11.40;99.90
2603;DHT22;1311;47.966;7.958;2023-03-14T06:59:11;11.40;99.90
2603;DHT22;1311;47.966;7.958;2023-03-14T07:01:38;11.40;99.90
2603;DHT22;1311;47.966;7.958;2023-03-14T07:04:07;11.50;99.90
2603;DHT22;1311;47.966;7.958;2023-03-14T07:06:34;11.50;99.90
2603;DHT22;1311;47.966;7.958;2023-03-14T07:09:01;11.50;99.90
2603;DHT22;1311;47.966;7.958;2023-03-14T07:11:28;11.60;99.90
2603;DHT22;1311;47.966;7.958;2023-03-14T07:13:55;11.60;99.90
2603;DHT22;1311;47.966;7.958;2023-03-14T07:16:21;11.70;99.90
2603;DHT22;1311;47.966;7.958;2023-03-14T07:18:48;11.70;99.90
2603;DHT22;1311;47.966;7.958;2023-03-14T07:21:17;11.80;99.90
2603;DHT22;1311;47.966;7.958;2023-03-14T07:23:43;11.90;99.90
2603;DHT22;1311;47.966;7.958;2023-03-14T07:26:10;11.90;99.90
2603;DHT22;1311;47.966;7.958;2023-03-14T07:28:37;12.00;99.90
2603;DHT22;1311;47.966;7.958;2023-03-14T07:31:04;12.10;99.90
2603;DHT22;1311;47.966;7.958;2023-03-14T07:33:31;12.10;99.90
2603;DHT22;1311;47.966;7.958;2023-03-14T07:35:57;12.10;99.90
2603;DHT22;1311;47.966;7.958;2023-03-14T07:38:26;12.20;99.90
2603;DHT22;1311;47.966;7.958;2023-03-14T07:40:58;12.30;99.90
2603;DHT22;1311;47.966;7.958;2023-03-14T07:43:25;12.50;99.90
2603;DHT22;1311;47.966;7.958;2023-03-14T07:45:52;12.50;99.90
2603;DHT22;1311;47.966;7.958;2023-03-14T07:48:19;12.60;99.90
2603;DHT22;1311;47.966;7.958;2023-03-14T07:50:48;12.70;99.90
2603;DHT22;1311;47.966;7.958;2023-03-14T07:53:15;12.70;99.90
2603;DHT22;1311;47.966;7.958;2023-03-14T07:55:43;12.70;99.90
2603;DHT22;1311;47.966;7.958;2023-03-14T07:58:10;12.70;99.90
2603;DHT22;1311;47.966;7.958;2023-03-14T08:00:37;12.70;99.90
2603;DHT22;1311;47.966;7.958;2023-03-14T08:03:04;12.70;99.90
2603;DHT22;1311;47.966;7.958;2023-03-14T08:05:34;12.60;99.90
2603;DHT22;1311;47.966;7.958;2023-03-14T08:08:03;12.50;99.90
2603;DHT22;1311;47.966;7.958;2023-03-14T08:10:30;12.40;99.90
2603;DHT22;1311;47.966;7.958;2023-03-14T08:13:00;12.30;99.90
2603;DHT22;1311;47.966;7.958;2023-03-14T08:15:29;12.30;99.90
2603;DHT22;1311;47.966;7.958;2023-03-14T08:17:56;12.20;99.90
2603;DHT22;1311;47.966;7.958;2023-03-14T08:20:24;12.10;99.90
2603;DHT22;1311;47.966;7.958;2023-03-14T08:22:52;12.10;99.90
2603;DHT22;1311;47.966;7.958;2023-03-14T08:25:20;12.00;99.90
2603;DHT22;1311;47.966;7.958;2023-03-14T08:27:46;12.00;99.90
2603;DHT22;1311;47.966;7.958;2023-03-14T08:30:16;11.90;99.90
2603;DHT22;1311;47.966;7.958;2023-03-14T08:32:43;11.90;99.90
2603;DHT22;1311;47.966;7.958;2023-03-14T08:35:10;11.70;99.90
2603;DHT22;1311;47.966;7.958;2023-03-14T08:37:37;11.70;99.90
2603;DHT22;1311;47.966;7.958;2023-03-14T08:40:05;11.70;99.90
2603;DHT22;1311;47.966;7.958;2023-03-14T08:42:32;11.70;99.90
2603;DHT22;1311;47.966;7.958;2023-03-14T08:44:59;11.80;99.90
2603;DHT22;1311;47.966;7.958;2023-03-14T08:47:27;11.70;99.90
2603;DHT22;1311;47.966;7.958;2023-03-14T08:49:54;11.60;99.90
2603;DHT22;1311;47.966;7.958;2023-03-14T08:52:21;11.60;99.90
2603;DHT22;1311;47.966;7.958;2023-03-14T08:54:48;11.50;99.90
2603;DHT22;1311;47.966;7.958;2023-03-14T08:57:15;11.50;99.90
2603;DHT22;1311;47.966;7.958;2023-03-14T08:59:41;11.70;99.90
2603;DHT22;1311;47.966;7.958;2023-03-14T09:02:09;11.90;99.90
2603;DHT22;1311;47.966;7.958;2023-03-14T09:04:38;12.20;99.90
2603;DHT22;1311;47.966;7.958;2023-03-14T09:07:05;12.50;99.90
2603;DHT22;1311;47.966;7.958;2023-03-14T09:09:32;12.50;99.90
2603;DHT22;1311;47.966;7.958;2023-03-14T09:11:59;12.70;99.90
2603;DHT22;1311;47.966;7.958;2023-03-14T09:14:26;13.10;99.90
2603;DHT22;1311;47.966;7.958;2023-03-14T09:16:52;13.10;99.90
2603;DHT22;1311;47.966;7.958;2023-03-14T09:19:19;13.00;99.90
2603;DHT22;1311;47.966;7.958;2023-03-14T09:21:47;13.00;99.90
2603;DHT22;1311;47.966;7.958;2023-03-14T09:24:14;13.40;99.90
2603;DHT22;1311;47.966;7.958;2023-03-14T09:26:41;13.50;99.90
2603;DHT22;1311;47.966;7.958;2023-03-14T09:29:08;13.20;99.90
2603;DHT22;1311;47.966;7.958;2023-03-14T09:31:35;13.30;99.90
2603;DHT22;1311;47.966;7.958;2023-03-14T09:34:01;13.30;99.90
2603;DHT22;1311;47.966;7.958;2023-03-14T09:36:28;13.40;99.90
2603;DHT22;1311;47.966;7.958;2023-03-14T09:38:56;13.20;99.90
2603;DHT22;1311;47.966;7.958;2023-03-14T09:41:27;13.30;99.90
2603;DHT22;1311;47.966;7.958;2023-03-14T09:44:01;13.10;99.90
2603;DHT22;1311;47.966;7.958;2023-03-14T09:46:29;12.60;99.90
2603;DHT22;1311;47.966;7.958;2023-03-14T09:48:57;12.50;99.90
2603;DHT22;1311;47.966;7.958;2023-03-14T09:51:24;12.20;99.90
2603;DHT22;1311;47.966;7.958;2023-03-14T09:53:52;11.80;99.90
2603;DHT22;1311;47.966;7.958;2023-03-14T09:56:22;11.70;99.90
2603;DHT22;1311;47.966;7.958;2023-03-14T09:58:54;11.60;99.90
2603;DHT22;1311;47.966;7.958;2023-03-14T10:01:25;11.30;99.90
2603;DHT22;1311;47.966;7.958;2023-03-14T10:03:55;11.30;99.90
2603;DHT22;1311;47.966;7.958;2023-03-14T10:06:24;11.20;99.90
2603;DHT22;1311;47.966;7.958;2023-03-14T10:08:52;11.00;99.90
2603;DHT22;1311;47.966;7.958;2023-03-14T10:11:21;10.90;99.90
2603;DHT22;1311;47.966;7.958;2023-03-14T10:13:53;10.90;99.90
2603;DHT22;1311;47.966;7.958;2023-03-14T10:16:30;10.80;99.90
2603;DHT22;1311;47.966;7.958;2023-03-14T10:19:06;10.60;99.90
2603;DHT22;1311;47.966;7.958;2023-03-14T10:21:38;10.60;99.90
2603;DHT22;1311;47.966;7.958;2023-03-14T10:24:20;10.50;99.90
2603;DHT22;1311;47.966;7.958;2023-03-14T10:26:52;10.50;99.90
2603;DHT22;1311;47.966;7.958;2023-03-14T10:29:19;10.40;99.90
2603;DHT22;1311;47.966;7.958;2023-03-14T10:31:50;10.30;99.90
2603;DHT22;1311;47.966;7.958;2023-03-14T10:34:22;10.30;99.90
2603;DHT22;1311;47.966;7.958;2023-03-14T10:36:52;10.30;99.90
2603;DHT22;1311;47.966;7.958;2023-03-14T10:39:30;10.30;99.90
2603;DHT22;1311;47.966;7.958;2023-03-14T10:42:16;10.30;99.90
2603;DHT22;1311;47.966;7.958;2023-03-14T10:44:46;10.30;99.90
2603;DHT22;1311;47.966;7.958;2023-03-14T10:47:18;10.20;99.90
2603;DHT22;1311;47.966;7.958;2023-03-14T10:49:46;10.20;99.90
2603;DHT22;1311;47.966;7.958;2023-03-14T10:52:15;10.10;99.90
2603;DHT22;1311;47.966;7.958;2023-03-14T10:54:47;10.10;99.90
2603;DHT22;1311;47.966;7.958;2023-03-14T10:57:15;10.00;99.90
2603;DHT22;1311;47.966;7.958;2023-03-14T10:59:43;10.00;99.90
2603;DHT22;1311;47.966;7.958;2023-03-14T11:05:14;10.00;99.90
2603;DHT22;1311;47.966;7.958;2023-03-14T11:07:43;10.40;99.90
2603;DHT22;1311;47.966;7.958;2023-03-14T11:10:19;10.40;99.90
2603;DHT22;1311;47.966;7.958;2023-03-14T11:12:59;10.30;99.90
2603;DHT22;1311;47.966;7.958;2023-03-14T11:15:30;10.10;99.90
2603;DHT22;1311;47.966;7.958;2023-03-14T11:18:20;10.10;99.90
2603;DHT22;1311;47.966;7.958;2023-03-14T11:20:52;10.00;99.90
2603;DHT22;1311;47.966;7.958;2023-03-14T11:23:21;10.00;99.90
2603;DHT22;1311;47.966;7.958;2023-03-14T11:25:54;9.90;99.90
2603;DHT22;1311;47.966;7.958;2023-03-14T11:28:28;10.10;99.90
2603;DHT22;1311;47.966;7.958;2023-03-14T11:31:01;10.30;99.90
2603;DHT22;1311;47.966;7.958;2023-03-14T11:33:35;10.50;99.90
2603;DHT22;1311;47.966;7.958;2023-03-14T11:36:06;10.30;99.90
2603;DHT22;1311;47.966;7.958;2023-03-14T11:38:37;10.40;99.90
2603;DHT22;1311;47.966;7.958;2023-03-14T11:41:10;10.50;99.90
2603;DHT22;1311;47.966;7.958;2023-03-14T11:43:40;10.40;99.90
2603;DHT22;1311;47.966;7.958;2023-03-14T11:46:12;10.10;99.90
2603;DHT22;1311;47.966;7.958;2023-03-14T11:48:45;8.60;99.90
2603;DHT22;1311;47.966;7.958;2023-03-14T11:51:22;7.80;99.90
2603;DHT22;1311;47.966;7.958;2023-03-14T11:53:56;7.90;99.90
2603;DHT22;1311;47.966;7.958;2023-03-14T11:56:29;7.80;99.90
2603;DHT22;1311;47.966;7.958;2023-03-14T11:59:02;7.90;99.90
2603;DHT22;1311;47.966;7.958;2023-03-14T12:01:45;7.90;99.90
2603;DHT22;1311;47.966;7.958;2023-03-14T12:04:25;7.80;99.90
2603;DHT22;1311;47.966;7.958;2023-03-14T12:07:02;7.90;99.90
2603;DHT22;1311;47.966;7.958;2023-03-14T12:09:29;8.20;99.90
2603;DHT22;1311;47.966;7.958;2023-03-14T12:11:58;8.40;99.90
2603;DHT22;1311;47.966;7.958;2023-03-14T12:14:29;8.50;99.90
2603;DHT22;1311;47.966;7.958;2023-03-14T12:16:58;8.60;99.90
2603;DHT22;1311;47.966;7.958;2023-03-14T12:19:35;8.50;99.90
2603;DHT22;1311;47.966;7.958;2023-03-14T12:22:22;8.40;99.90
2603;DHT22;1311;47.966;7.958;2023-03-14T12:24:55;8.20;99.90
2603;DHT22;1311;47.966;7.958;2023-03-14T12:27:47;8.30;99.90
2603;DHT22;1311;47.966;7.958;2023-03-14T12:30:23;8.70;99.90
2603;DHT22;1311;47.966;7.958;2023-03-14T12:35:58;8.50;99.90
2603;DHT22;1311;47.966;7.958;2023-03-14T12:38:32;8.60;99.90
2603;DHT22;1311;47.966;7.958;2023-03-14T12:41:10;8.80;99.90
2603;DHT22;1311;47.966;7.958;2023-03-14T12:43:38;9.30;99.90
2603;DHT22;1311;47.966;7.958;2023-03-14T12:46:20;9.60;99.90
2603;DHT22;1311;47.966;7.958;2023-03-14T12:48:49;10.20;99.90
2603;DHT22;1311;47.966;7.958;2023-03-14T12:51:18;10.50;99.90
2603;DHT22;1311;47.966;7.958;2023-03-14T12:57:04;10.70;99.90
2603;DHT22;1311;47.966;7.958;2023-03-14T12:59:34;10.40;99.90
2603;DHT22;1311;47.966;7.958;2023-03-14T13:02:17;10.10;99.90
2603;DHT22;1311;47.966;7.958;2023-03-14T13:04:46;10.20;99.90
2603;DHT22;1311;47.966;7.958;2023-03-14T13:07:30;10.00;99.90
2603;DHT22;1311;47.966;7.958;2023-03-14T13:10:05;9.70;99.90
2603;DHT22;1311;47.966;7.958;2023-03-14T13:12:46;9.50;99.90
2603;DHT22;1311;47.966;7.958;2023-03-14T13:15:22;9.30;99.90
2603;DHT22;1311;47.966;7.958;2023-03-14T13:17:53;9.30;99.90
2603;DHT22;1311;47.966;7.958;2023-03-14T13:20:27;9.20;99.90
2603;DHT22;1311;47.966;7.958;2023-03-14T13:22:54;8.90;99.90
2603;DHT22;1311;47.966;7.958;2023-03-14T13:25:21;8.70;99.90
2603;DHT22;1311;47.966;7.958;2023-03-14T13:27:49;8.70;99.90
2603;DHT22;1311;47.966;7.958;2023-03-14T13:30:22;8.90;99.90
2603;DHT22;1311;47.966;7.958;2023-03-14T13:32:51;9.00;99.90
2603;DHT22;1311;47.966;7.958;2023-03-14T13:35:21;9.20;99.90
2603;DHT22;1311;47.966;7.958;2023-03-14T13:37:54;9.30;99.90
2603;DHT22;1311;47.966;7.958;2023-03-14T13:40:25;9.20;99.90
2603;DHT22;1311;47.966;7.958;2023-03-14T13:43:14;9.10;99.90
2603;DHT22;1311;47.966;7.958;2023-03-14T13:45:50;8.90;99.90
2603;DHT22;1311;47.966;7.958;2023-03-14T13:48:19;8.80;99.90
2603;DHT22;1311;47.966;7.958;2023-03-14T13:50:51;8.90;99.90
2603;DHT22;1311;47.966;7.958;2023-03-14T13:53:18;8.90;99.90
2603;DHT22;1311;47.966;7.958;2023-03-14T13:55:45;8.70;99.90
2603;DHT22;1311;47.966;7.958;2023-03-14T13:58:20;8.60;99.90
2603;DHT22;1311;47.966;7.958;2023-03-14T14:00:57;8.80;99.90
2603;DHT22;1311;47.966;7.958;2023-03-14T14:03:26;8.90;99.90
2603;DHT22;1311;47.966;7.958;2023-03-14T14:05:55;8.90;99.90
2603;DHT22;1311;47.966;7.958;2023-03-14T14:08:23;8.80;99.90
2603;DHT22;1311;47.966;7.958;2023-03-14T14:10:50;8.80;99.90
2603;DHT22;1311;47.966;7.958;2023-03-14T14:13:21;8.70;99.90
2603;DHT22;1311;47.966;7.958;2023-03-14T14:15:51;8.70;99.90
2603;DHT22;1311;47.966;7.958;2023-03-14T14:18:21;8.70;99.90
2603;DHT22;1311;47.966;7.958;2023-03-14T14:20:51;8.60;99.90
2603;DHT22;1311;47.966;7.958;2023-03-14T14:23:20;8.60;99.90
2603;DHT22;1311;47.966;7.958;2023-03-14T14:25:51;8.60;99.90
2603;DHT22;1311;47.966;7.958;2023-03-14T14:28:24;8.50;99.90
2603;DHT22;1311;47.966;7.958;2023-03-14T14:31:00;8.60;99.90
2603;DHT22;1311;47.966;7.958;2023-03-14T14:33:37;8.60;99.90
2603;DHT22;1311;47.966;7.958;2023-03-14T14:36:14;8.70;99.90
2603;DHT22;1311;47.966;7.958;2023-03-14T14:38:48;8.70;99.90
2603;DHT22;1311;47.966;7.958;2023-03-14T14:41:15;8.90;99.90
2603;DHT22;1311;47.966;7.958;2023-03-14T14:43:42;9.20;99.90
2603;DHT22;1311;47.966;7.958;2023-03-14T14:46:13;9.40;99.90
2603;DHT22;1311;47.966;7.958;2023-03-14T14:48:42;9.20;99.90
2603;DHT22;1311;47.966;7.958;2023-03-14T14:51:10;9.30;99.90
2603;DHT22;1311;47.966;7.958;2023-03-14T14:53:39;9.50;99.90
2603;DHT22;1311;47.966;7.958;2023-03-14T14:56:13;9.70;99.90
2603;DHT22;1311;47.966;7.958;2023-03-14T14:58:44;9.80;99.90
2603;DHT22;1311;47.966;7.958;2023-03-14T15:01:14;9.90;99.90
2603;DHT22;1311;47.966;7.958;2023-03-14T15:03:42;9.90;99.90
2603;DHT22;1311;47.966;7.958;2023-03-14T15:06:13;9.90;99.90
2603;DHT22;1311;47.966;7.958;2023-03-14T15:08:40;9.80;99.90
2603;DHT22;1311;47.966;7.958;2023-03-14T15:11:09;9.70;99.90
2603;DHT22;1311;47.966;7.958;2023-03-14T15:13:42;9.60;99.90
2603;DHT22;1311;47.966;7.958;2023-03-14T15:16:09;9.70;99.90
2603;DHT22;1311;47.966;7.958;2023-03-14T15:18:37;9.80;99.90
2603;DHT22;1311;47.966;7.958;2023-03-14T15:21:04;9.90;99.90
2603;DHT22;1311;47.966;7.958;2023-03-14T15:23:32;9.90;99.90
2603;DHT22;1311;47.966;7.958;2023-03-14T15:25:58;9.80;99.90
2603;DHT22;1311;47.966;7.958;2023-03-14T15:28:27;9.90;99.90
2603;DHT22;1311;47.966;7.958;2023-03-14T15:30:55;9.90;99.90
2603;DHT22;1311;47.966;7.958;2023-03-14T15:33:23;9.80;99.90
2603;DHT22;1311;47.966;7.958;2023-03-14T15:35:51;9.70;99.90
2603;DHT22;1311;47.966;7.958;2023-03-14T15:38:19;9.80;99.90
2603;DHT22;1311;47.966;7.958;2023-03-14T15:40:50;10.10;99.90
2603;DHT22;1311;47.966;7.958;2023-03-14T15:43:17;10.30;99.90
2603;DHT22;1311;47.966;7.958;2023-03-14T15:45:44;10.40;99.90
2603;DHT22;1311;47.966;7.958;2023-03-14T15:48:14;10.30;99.90
2603;DHT22;1311;47.966;7.958;2023-03-14T15:50:42;10.10;99.90
2603;DHT22;1311;47.966;7.958;2023-03-14T15:53:09;10.10;99.90
2603;DHT22;1311;47.966;7.958;2023-03-14T15:55:35;10.00;99.90
2603;DHT22;1311;47.966;7.958;2023-03-14T15:58:03;9.70;99.90
2603;DHT22;1311;47.966;7.958;2023-03-14T16:00:30;9.40;99.90
2603;DHT22;1311;47.966;7.958;2023-03-14T16:02:57;9.40;99.90
2603;DHT22;1311;47.966;7.958;2023-03-14T16:05:24;9.50;99.90
2603;DHT22;1311;47.966;7.958;2023-03-14T16:07:51;9.60;99.90
2603;DHT22;1311;47.966;7.958;2023-03-14T16:10:17;9.50;99.90
2603;DHT22;1311;47.966;7.958;2023-03-14T16:12:44;9.50;99.90
2603;DHT22;1311;47.966;7.958;2023-03-14T16:15:12;9.40;99.90
2603;DHT22;1311;47.966;7.958;2023-03-14T16:17:39;9.30;99.90
2603;DHT22;1311;47.966;7.958;2023-03-14T16:20:09;9.20;99.90
2603;DHT22;1311;47.966;7.958;2023-03-14T16:22:36;9.20;99.90
2603;DHT22;1311;47.966;7.958;2023-03-14T16:25:03;9.20;99.90
2603;DHT22;1311;47.966;7.958;2023-03-14T16:27:31;9.10;99.90
2603;DHT22;1311;47.966;7.958;2023-03-14T16:29:58;9.10;99.90